createdAt,value
2022-12-27T00:01:38.705Z,10.05
2022-12-27T00:04:06.180Z,3.97
2022-12-27T00:06:33.460Z,3.35
2022-12-27T00:09:01.527Z,2.97
2022-12-27T00:11:30.079Z,3.13
2022-12-27T00:14:08.610Z,2.92
2022-12-27T00:16:36.140Z,2.78
2022-12-27T00:19:03.842Z,2.85
2022-12-27T00:21:31.397Z,3.38
2022-12-27T00:24:00.185Z,3.30
2022-12-27T00:26:31.484Z,3.00
2022-12-27T00:28:59.431Z,3.40
2022-12-27T00:31:29.948Z,3.25
2022-12-27T00:33:59.809Z,3.15
2022-12-27T00:36:29.396Z,3.70
2022-12-27T00:38:58.327Z,3.42
2022-12-27T00:41:25.716Z,3.50
2022-12-27T00:43:53.063Z,3.40
2022-12-27T00:46:20.364Z,3.47
2022-12-27T00:48:47.892Z,3.38
2022-12-27T00:51:18.155Z,3.47
2022-12-27T00:53:45.995Z,3.33
2022-12-27T00:56:22.703Z,3.58
2022-12-27T00:58:58.181Z,3.22
2022-12-27T01:01:27.679Z,3.20
2022-12-27T01:03:56.769Z,3.30
2022-12-27T01:06:28.970Z,3.75
2022-12-27T01:08:57.079Z,3.85
2022-12-27T01:11:26.135Z,3.47
2022-12-27T01:13:56.073Z,3.92
2022-12-27T01:16:24.649Z,4.07
2022-12-27T01:18:52.312Z,3.38
2022-12-27T01:21:21.149Z,3.67
2022-12-27T01:23:49.094Z,3.47
2022-12-27T01:26:21.500Z,3.38
2022-12-27T01:28:49.664Z,3.45
2022-12-27T01:31:19.199Z,3.47
2022-12-27T01:33:47.079Z,3.38
2022-12-27T01:36:22.471Z,3.15
2022-12-27T01:38:52.769Z,2.78
2022-12-27T01:41:55.952Z,3.22
2022-12-27T01:44:39.657Z,2.83
2022-12-27T01:47:45.854Z,3.47
2022-12-27T01:50:48.088Z,3.28
2022-12-27T01:53:23.732Z,3.72
2022-12-27T01:55:56.299Z,3.10
2022-12-27T01:58:33.546Z,3.65
2022-12-27T02:01:01.600Z,3.35
2022-12-27T02:03:34.583Z,3.30
2022-12-27T02:06:05.560Z,2.67
2022-12-27T02:09:02.209Z,3.28
2022-12-27T02:11:50.534Z,3.25
2022-12-27T02:14:33.405Z,3.45
2022-12-27T02:17:03.947Z,3.88
2022-12-27T02:19:40.276Z,3.13
2022-12-27T02:22:10.108Z,3.60
2022-12-27T02:24:57.124Z,2.92
2022-12-27T02:28:06.031Z,3.30
2022-12-27T02:30:33.776Z,3.40
2022-12-27T02:33:04.867Z,3.80
2022-12-27T02:35:36.945Z,3.45
2022-12-27T02:38:04.146Z,4.00
2022-12-27T02:40:50.740Z,3.83
2022-12-27T02:43:36.535Z,3.40
2022-12-27T02:46:38.297Z,3.45
2022-12-27T02:49:42.811Z,2.78
2022-12-27T02:52:31.473Z,4.07
2022-12-27T02:55:23.580Z,3.45
2022-12-27T02:58:14.046Z,3.88
2022-12-27T03:01:07.520Z,3.47
2022-12-27T03:03:52.493Z,3.42
2022-12-27T03:06:41.372Z,3.20
2022-12-27T03:09:45.797Z,3.38
2022-12-27T03:12:49.421Z,2.65
2022-12-27T03:15:58.128Z,2.80
2022-12-27T03:18:28.292Z,3.00
2022-12-27T03:24:03.844Z,2.60
2022-12-27T03:26:34.155Z,3.55
2022-12-27T03:29:20.364Z,2.90
2022-12-27T03:32:10.465Z,3.45
2022-12-27T03:34:42.980Z,3.10
2022-12-27T03:37:31.747Z,2.90
2022-12-27T03:40:12.398Z,3.15
2022-12-27T03:43:05.388Z,3.17
2022-12-27T03:45:57.807Z,3.22
2022-12-27T03:48:26.772Z,3.88
2022-12-27T03:50:55.184Z,2.60
2022-12-27T03:53:42.519Z,3.33
2022-12-27T03:56:10.215Z,2.97
2022-12-27T03:58:37.541Z,3.45
2022-12-27T04:01:04.888Z,3.22
2022-12-27T04:03:32.184Z,3.30
2022-12-27T04:05:59.517Z,3.45
2022-12-27T04:08:45.688Z,2.85
2022-12-27T04:11:31.375Z,3.60
2022-12-27T04:14:17.310Z,2.95
2022-12-27T04:17:03.241Z,3.35
2022-12-27T04:19:49.171Z,3.40
2022-12-27T04:22:35.107Z,3.42
2022-12-27T04:25:21.385Z,2.72
2022-12-27T04:28:07.143Z,3.47
2022-12-27T04:30:52.965Z,3.08
2022-12-27T04:33:39.051Z,3.30
2022-12-27T04:36:07.254Z,2.88
2022-12-27T04:38:34.489Z,3.50
2022-12-27T04:41:19.998Z,3.55
2022-12-27T04:44:05.794Z,3.67
2022-12-27T04:46:52.021Z,3.95
2022-12-27T04:49:42.790Z,2.97
2022-12-27T04:52:37.495Z,3.60
2022-12-27T04:55:19.157Z,3.00
2022-12-27T04:57:46.565Z,2.80
2022-12-27T05:00:33.603Z,3.50
2022-12-27T05:03:02.751Z,3.25
2022-12-27T05:05:30.138Z,3.03
2022-12-27T05:08:17.072Z,2.97
2022-12-27T05:11:02.971Z,3.17
2022-12-27T05:13:48.922Z,3.05
2022-12-27T05:16:16.353Z,3.00
2022-12-27T05:18:43.737Z,3.58
2022-12-27T05:21:11.040Z,3.35
2022-12-27T05:24:03.394Z,3.20
2022-12-27T05:26:33.471Z,3.30
2022-12-27T05:29:01.056Z,3.00
2022-12-27T05:31:29.832Z,3.78
2022-12-27T05:33:57.968Z,2.80
2022-12-27T05:36:25.628Z,3.10
2022-12-27T05:38:52.933Z,3.08
2022-12-27T05:41:20.412Z,2.90
2022-12-27T05:43:47.987Z,3.13
2022-12-27T05:46:18.098Z,3.20
2022-12-27T05:48:45.528Z,3.45
2022-12-27T05:51:16.133Z,3.03
2022-12-27T05:53:43.690Z,3.13
2022-12-27T05:56:16.414Z,3.03
2022-12-27T05:58:43.941Z,3.38
2022-12-27T06:01:13.634Z,3.17
2022-12-27T06:03:40.984Z,3.00
2022-12-27T06:06:08.731Z,2.63
2022-12-27T06:08:36.565Z,2.50
2022-12-27T06:11:10.437Z,3.25
2022-12-27T06:13:38.446Z,2.80
2022-12-27T06:16:07.271Z,2.88
2022-12-27T06:18:36.491Z,3.30
2022-12-27T06:21:13.496Z,3.20
2022-12-27T06:23:42.167Z,3.00
2022-12-27T06:26:13.047Z,3.05
2022-12-27T06:28:40.484Z,3.53
2022-12-27T06:31:10.376Z,2.83
2022-12-27T06:33:37.657Z,3.20
2022-12-27T06:36:10.140Z,3.20
2022-12-27T06:38:37.649Z,3.35
2022-12-27T06:41:06.801Z,3.13
2022-12-27T06:43:34.348Z,3.10
2022-12-27T06:46:06.112Z,3.00
2022-12-27T06:48:34.017Z,3.00
2022-12-27T06:51:04.429Z,3.20
2022-12-27T06:53:31.825Z,3.47
2022-12-27T06:56:06.981Z,3.67
2022-12-27T06:58:35.121Z,3.65
2022-12-27T07:01:09.322Z,3.80
2022-12-27T07:03:38.098Z,3.53
2022-12-27T07:06:08.354Z,3.33
2022-12-27T07:08:36.455Z,3.63
2022-12-27T07:11:06.607Z,3.60
2022-12-27T07:13:35.794Z,3.50
2022-12-27T07:16:05.667Z,3.85
2022-12-27T07:18:33.025Z,4.00
2022-12-27T07:21:06.833Z,3.83
2022-12-27T07:23:34.377Z,3.88
2022-12-27T07:26:06.193Z,3.45
2022-12-27T07:28:34.017Z,3.67
2022-12-27T07:31:09.176Z,3.00
2022-12-27T07:33:37.419Z,3.60
2022-12-27T07:36:06.516Z,3.60
2022-12-27T07:38:33.804Z,4.03
2022-12-27T07:41:02.223Z,3.60
2022-12-27T07:43:31.126Z,3.35
2022-12-27T07:46:05.569Z,3.25
2022-12-27T07:48:33.112Z,3.72
2022-12-27T07:51:00.531Z,3.15
2022-12-27T07:53:29.344Z,3.22
2022-12-27T07:55:56.969Z,3.55
2022-12-27T07:58:25.570Z,4.50
2022-12-27T08:00:53.067Z,3.35
2022-12-27T08:03:20.652Z,3.50
2022-12-27T08:05:49.644Z,4.15
2022-12-27T08:08:18.447Z,3.88
2022-12-27T08:10:45.707Z,3.45
2022-12-27T08:13:13.082Z,3.40
2022-12-27T08:15:41.867Z,3.53
2022-12-27T08:18:09.609Z,3.22
2022-12-27T08:20:37.258Z,4.15
2022-12-27T08:23:04.745Z,3.42
2022-12-27T08:25:34.207Z,3.67
2022-12-27T08:28:05.857Z,3.78
2022-12-27T08:30:33.358Z,3.53
2022-12-27T08:33:01.963Z,3.53
2022-12-27T08:38:16.704Z,3.80
2022-12-27T08:40:45.303Z,3.75
2022-12-27T08:43:13.012Z,3.97
2022-12-27T08:45:41.074Z,4.13
2022-12-27T08:48:08.431Z,4.10
2022-12-27T08:50:35.991Z,4.05
2022-12-27T08:53:04.807Z,3.97
2022-12-27T08:55:32.714Z,3.92
2022-12-27T08:58:10.539Z,3.28
2022-12-27T09:00:41.149Z,3.65
2022-12-27T09:03:09.428Z,4.20
2022-12-27T09:05:41.724Z,3.55
2022-12-27T09:08:10.570Z,4.20
2022-12-27T09:10:38.842Z,4.57
2022-12-27T09:13:06.371Z,3.70
2022-12-27T09:15:33.750Z,4.00
2022-12-27T09:18:03.128Z,3.90
2022-12-27T09:20:30.415Z,3.45
2022-12-27T09:22:58.800Z,4.20
2022-12-27T09:25:26.100Z,4.65
2022-12-27T09:27:54.729Z,4.57
2022-12-27T09:30:22.352Z,4.57
2022-12-27T09:32:49.642Z,5.20
2022-12-27T09:35:17.005Z,7.15
2022-12-27T09:37:44.282Z,5.95
2022-12-27T09:40:15.854Z,4.57
2022-12-27T09:43:02.963Z,5.03
2022-12-27T09:45:51.994Z,5.13
2022-12-27T09:48:33.455Z,4.55
2022-12-27T09:51:14.696Z,4.72
2022-12-27T09:54:14.460Z,4.10
2022-12-27T09:57:17.638Z,10.15
2022-12-27T09:59:33.418Z,14.52
2022-12-27T10:02:00.864Z,4.70
2022-12-27T10:05:00.902Z,4.68
2022-12-27T10:07:27.576Z,4.47
2022-12-27T10:10:17.675Z,4.60
2022-12-27T10:13:10.535Z,12.07
2022-12-27T10:16:01.065Z,17.83
2022-12-27T10:18:34.408Z,16.38
2022-12-27T10:21:16.388Z,12.77
2022-12-27T10:23:45.687Z,9.75
2022-12-27T10:26:14.477Z,4.30
2022-12-27T10:28:44.435Z,3.88
2022-12-27T10:33:49.938Z,5.13
2022-12-27T10:36:21.460Z,4.05
2022-12-27T10:38:51.948Z,4.00
2022-12-27T10:41:31.450Z,4.30
2022-12-27T10:44:00.155Z,4.20
2022-12-27T10:46:33.289Z,4.20
2022-12-27T10:49:22.639Z,5.13
2022-12-27T10:51:51.842Z,9.45
2022-12-27T10:54:23.945Z,14.00
2022-12-27T10:56:51.828Z,4.50
2022-12-27T10:59:28.940Z,18.05
2022-12-27T11:02:02.409Z,26.33
2022-12-27T11:04:31.029Z,19.25
2022-12-27T11:07:04.666Z,13.23
2022-12-27T11:09:38.439Z,24.25
2022-12-27T11:12:33.101Z,12.65
2022-12-27T11:15:06.361Z,5.53
2022-12-27T11:17:39.416Z,4.30
2022-12-27T11:20:23.213Z,3.90
2022-12-27T11:22:54.086Z,3.75
2022-12-27T11:25:21.826Z,4.78
2022-12-27T11:27:55.880Z,4.28
2022-12-27T11:30:40.064Z,3.05
2022-12-27T11:33:33.285Z,4.28
2022-12-27T11:36:00.999Z,3.63
2022-12-27T11:38:30.926Z,4.43
2022-12-27T11:41:08.237Z,3.83
2022-12-27T11:43:45.636Z,3.97
2022-12-27T11:46:35.521Z,5.13
2022-12-27T11:49:06.945Z,5.50
2022-12-27T11:51:55.750Z,3.72
2022-12-27T11:54:44.728Z,3.65
2022-12-27T11:57:27.712Z,3.22
2022-12-27T12:00:23.468Z,2.70
2022-12-27T12:02:58.787Z,3.08
2022-12-27T12:05:54.071Z,2.55
2022-12-27T12:08:50.597Z,2.67
2022-12-27T12:11:34.643Z,5.35
2022-12-27T12:15:04.268Z,11.38
2022-12-27T12:17:41.176Z,4.10
2022-12-27T12:20:17.836Z,3.42
2022-12-27T12:23:13.835Z,3.25
2022-12-27T12:25:59.649Z,3.33
2022-12-27T12:28:58.133Z,3.30
2022-12-27T12:31:41.158Z,3.28
2022-12-27T12:34:24.803Z,3.28
2022-12-27T12:37:24.444Z,2.40
2022-12-27T12:39:56.163Z,3.03
2022-12-27T12:42:56.841Z,2.50
2022-12-27T12:45:37.122Z,2.83
2022-12-27T12:48:22.858Z,2.80
2022-12-27T12:51:17.614Z,7.75
2022-12-27T12:53:51.390Z,6.53
2022-12-27T12:56:30.929Z,6.22
2022-12-27T12:59:07.540Z,5.78
2022-12-27T13:02:09.039Z,4.18
2022-12-27T13:04:46.017Z,3.70
2022-12-27T13:07:16.960Z,3.65
2022-12-27T13:09:56.415Z,8.00
2022-12-27T13:12:37.747Z,8.90
2022-12-27T13:15:11.048Z,4.45
2022-12-27T13:18:02.789Z,4.25
2022-12-27T13:20:57.270Z,3.75
2022-12-27T13:23:46.962Z,3.38
2022-12-27T13:26:39.043Z,3.78
2022-12-27T13:29:40.406Z,3.17
2022-12-27T13:32:56.021Z,2.83
2022-12-27T13:36:02.120Z,4.47
2022-12-27T13:38:35.514Z,4.22
2022-12-27T13:41:10.757Z,2.65
2022-12-27T13:44:06.957Z,2.38
2022-12-27T13:46:43.336Z,2.83
2022-12-27T13:49:31.850Z,2.40
2022-12-27T13:52:06.482Z,2.90
2022-12-27T13:54:48.886Z,2.15
2022-12-27T13:57:40.685Z,2.20
2022-12-27T14:00:17.864Z,2.17
2022-12-27T14:03:07.022Z,1.85
2022-12-27T14:06:05.299Z,2.10
2022-12-27T14:09:10.314Z,2.30
2022-12-27T14:11:46.380Z,2.25
2022-12-27T14:14:16.593Z,2.30
2022-12-27T14:19:52.575Z,7.43
2022-12-27T14:25:30.537Z,6.38
2022-12-27T14:28:03.975Z,2.78
2022-12-27T14:30:49.505Z,2.20
2022-12-27T14:33:35.726Z,2.20
2022-12-27T14:36:21.889Z,2.30
2022-12-27T14:38:58.366Z,2.58
2022-12-27T14:41:45.662Z,3.50
2022-12-27T14:44:34.727Z,3.20
2022-12-27T14:47:25.469Z,2.85
2022-12-27T14:50:04.881Z,2.85
2022-12-27T14:53:00.221Z,2.53
2022-12-27T14:55:40.993Z,2.53
2022-12-27T14:58:24.970Z,2.22
2022-12-27T15:01:20.152Z,2.58
2022-12-27T15:04:07.795Z,2.50
2022-12-27T15:07:02.707Z,3.10
2022-12-27T15:09:48.384Z,2.35
2022-12-27T15:12:44.725Z,3.03
2022-12-27T15:15:43.956Z,3.08
2022-12-27T15:18:36.184Z,3.53
2022-12-27T15:21:41.619Z,3.33
2022-12-27T15:24:31.755Z,3.25
2022-12-27T15:27:28.210Z,6.57
2022-12-27T15:30:25.311Z,8.88
2022-12-27T15:32:58.886Z,4.13
2022-12-27T15:35:35.234Z,3.40
2022-12-27T15:38:15.018Z,2.65
2022-12-27T15:40:56.403Z,2.67
2022-12-27T15:44:01.412Z,3.00
2022-12-27T15:46:49.983Z,3.50
2022-12-27T15:49:36.471Z,3.45
2022-12-27T15:52:16.499Z,3.45
2022-12-27T15:54:53.901Z,3.30
2022-12-27T15:57:40.036Z,3.47
2022-12-27T16:00:33.892Z,2.92
2022-12-27T16:03:04.275Z,3.17
2022-12-27T16:05:42.647Z,3.22
2022-12-27T16:08:09.810Z,2.80
2022-12-27T16:10:40.151Z,3.13
2022-12-27T16:13:13.072Z,3.38
2022-12-27T16:15:44.629Z,3.45
2022-12-27T16:18:23.956Z,3.85
2022-12-27T16:21:10.261Z,3.87
2022-12-27T16:23:50.230Z,3.58
2022-12-27T16:26:21.079Z,3.55
2022-12-27T16:28:54.344Z,3.78
2022-12-27T16:31:27.231Z,3.83
2022-12-27T16:33:56.790Z,3.97
2022-12-27T16:36:32.455Z,6.93
2022-12-27T16:39:18.756Z,9.18
2022-12-27T16:41:55.011Z,5.88
2022-12-27T16:44:25.215Z,8.07
2022-12-27T16:49:43.293Z,7.07
2022-12-27T16:52:14.858Z,10.85
2022-12-27T16:54:55.524Z,7.47
2022-12-27T16:57:26.263Z,6.30
2022-12-27T17:00:05.779Z,7.05
2022-12-27T17:02:46.016Z,7.28
2022-12-27T17:05:16.354Z,7.40
2022-12-27T17:07:52.751Z,7.00
2022-12-27T17:10:32.688Z,7.22
2022-12-27T17:13:11.074Z,7.00
2022-12-27T17:15:54.676Z,7.28
2022-12-27T17:18:31.469Z,6.93
2022-12-27T17:21:05.405Z,7.53
2022-12-27T17:23:38.712Z,8.40
2022-12-27T17:26:21.045Z,7.55
2022-12-27T17:29:08.569Z,8.93
2022-12-27T17:32:04.865Z,8.98
2022-12-27T17:34:42.839Z,9.00
2022-12-27T17:37:23.475Z,16.15
2022-12-27T17:40:06.547Z,14.55
2022-12-27T17:43:13.115Z,15.35
2022-12-27T17:45:47.393Z,11.45
2022-12-27T17:48:40.836Z,12.13
2022-12-27T17:51:15.151Z,9.32
2022-12-27T17:54:08.808Z,10.57
2022-12-27T17:57:00.904Z,8.98
2022-12-27T17:59:29.823Z,9.05
2022-12-27T18:02:06.092Z,8.75
2022-12-27T18:04:38.606Z,9.00
2022-12-27T18:07:08.175Z,8.55
2022-12-27T18:09:53.234Z,8.23
2022-12-27T18:12:23.672Z,8.88
2022-12-27T18:14:58.308Z,7.63
2022-12-27T18:17:37.751Z,7.57
2022-12-27T18:20:30.092Z,7.30
2022-12-27T18:23:00.615Z,6.88
2022-12-27T18:25:29.140Z,7.10
2022-12-27T18:28:27.228Z,7.72
2022-12-27T18:31:19.842Z,14.05
2022-12-27T18:33:51.674Z,15.27
2022-12-27T18:36:23.906Z,14.93
2022-12-27T18:39:24.154Z,12.25
2022-12-27T18:44:27.732Z,26.52
2022-12-27T18:46:58.178Z,9.00
2022-12-27T18:52:12.886Z,8.55
2022-12-27T18:54:40.311Z,8.77
2022-12-27T18:57:35.260Z,10.80
2022-12-27T19:00:25.224Z,7.63
2022-12-27T19:02:54.745Z,6.80
2022-12-27T19:05:25.783Z,7.45
2022-12-27T19:07:57.628Z,12.77
2022-12-27T19:10:26.973Z,20.35
2022-12-27T19:12:55.527Z,12.45
2022-12-27T19:15:29.327Z,9.80
2022-12-27T19:18:00.633Z,15.32
2022-12-27T19:20:30.256Z,17.35
2022-12-27T19:23:00.688Z,12.77
2022-12-27T19:25:35.814Z,21.70
2022-12-27T19:28:09.458Z,19.05
2022-12-27T19:30:41.680Z,14.10
2022-12-27T19:33:25.517Z,10.38
2022-12-27T19:35:53.461Z,14.32
2022-12-27T19:38:23.555Z,15.50
2022-12-27T19:43:26.434Z,18.35
2022-12-27T19:45:53.764Z,6.35
2022-12-27T19:48:21.063Z,6.20
2022-12-27T19:50:51.925Z,6.15
2022-12-27T19:53:29.627Z,5.57
2022-12-27T19:55:58.371Z,4.45
2022-12-27T19:58:27.608Z,4.60
2022-12-27T20:00:55.640Z,5.05
2022-12-27T20:03:23.977Z,4.95
2022-12-27T20:06:11.747Z,5.00
2022-12-27T20:08:45.461Z,5.13
2022-12-27T20:11:21.832Z,4.18
2022-12-27T20:13:49.957Z,4.78
2022-12-27T20:16:18.736Z,4.70
2022-12-27T20:18:47.041Z,4.60
2022-12-27T20:21:19.523Z,5.70
2022-12-27T20:23:47.288Z,5.90
2022-12-27T20:26:18.157Z,5.93
2022-12-27T20:28:46.002Z,8.77
2022-12-27T20:31:14.888Z,7.45
2022-12-27T20:33:42.446Z,8.73
2022-12-27T20:36:10.282Z,8.52
2022-12-27T20:38:39.136Z,11.35
2022-12-27T20:41:15.362Z,19.35
2022-12-27T20:43:42.780Z,14.93
2022-12-27T20:46:12.716Z,11.23
2022-12-27T20:48:41.929Z,10.18
2022-12-27T20:51:11.972Z,8.43
2022-12-27T20:53:39.510Z,7.13
2022-12-27T20:56:09.010Z,5.18
2022-12-27T20:58:36.486Z,7.47
2022-12-27T21:01:21.172Z,6.35
2022-12-27T21:03:48.802Z,5.38
2022-12-27T21:06:23.762Z,4.93
2022-12-27T21:08:56.597Z,4.80
2022-12-27T21:11:27.492Z,4.20
2022-12-27T21:13:55.715Z,9.48
2022-12-27T21:16:27.876Z,6.75
2022-12-27T21:18:56.527Z,4.20
2022-12-27T21:21:28.047Z,10.45
2022-12-27T21:23:58.162Z,6.32
2022-12-27T21:26:28.362Z,3.65
2022-12-27T21:28:56.244Z,3.92
2022-12-27T21:31:23.886Z,3.75
2022-12-27T21:33:51.265Z,3.38
2022-12-27T21:36:20.943Z,3.60
2022-12-27T21:38:49.135Z,3.60
2022-12-27T21:41:24.190Z,3.85
2022-12-27T21:43:52.139Z,3.60
2022-12-27T21:46:25.982Z,10.80
2022-12-27T21:48:55.972Z,4.82
2022-12-27T21:51:23.591Z,4.13
2022-12-27T21:53:51.172Z,4.00
2022-12-27T21:56:18.528Z,4.15
2022-12-27T21:58:46.122Z,3.63
2022-12-27T22:01:18.775Z,3.70
2022-12-27T22:03:48.287Z,4.05
2022-12-27T22:06:18.626Z,4.28
2022-12-27T22:08:51.093Z,4.22
2022-12-27T22:11:20.686Z,4.38
2022-12-27T22:13:48.149Z,4.25
2022-12-27T22:16:21.774Z,4.35
2022-12-27T22:18:50.766Z,4.78
2022-12-27T22:21:20.543Z,4.22
2022-12-27T22:23:50.183Z,4.95
2022-12-27T22:26:20.506Z,5.03
2022-12-27T22:28:48.167Z,4.95
2022-12-27T22:31:21.472Z,5.20
2022-12-27T22:33:50.235Z,4.55
2022-12-27T22:36:22.708Z,4.50
2022-12-27T22:38:50.859Z,5.10
2022-12-27T22:41:21.058Z,4.60
2022-12-27T22:43:54.484Z,4.80
2022-12-27T22:46:22.243Z,4.70
2022-12-27T22:48:55.454Z,4.90
2022-12-27T22:51:28.033Z,5.40
2022-12-27T22:53:56.535Z,5.10
2022-12-27T22:56:26.631Z,4.93
2022-12-27T23:01:24.780Z,4.43
2022-12-27T23:03:52.149Z,4.35
2022-12-27T23:06:19.714Z,4.30
2022-12-27T23:08:47.788Z,4.45
2022-12-27T23:11:18.760Z,4.15
2022-12-27T23:13:47.032Z,4.15
2022-12-27T23:16:14.849Z,3.72
2022-12-27T23:18:42.307Z,3.83
2022-12-27T23:21:21.722Z,3.90
2022-12-27T23:23:52.309Z,3.42
2022-12-27T23:26:21.714Z,3.65
2022-12-27T23:28:50.301Z,3.92
2022-12-27T23:31:18.986Z,3.88
2022-12-27T23:33:46.712Z,3.50
2022-12-27T23:36:14.795Z,3.55
2022-12-27T23:38:42.669Z,3.45
2022-12-27T23:41:14.671Z,3.35
2022-12-27T23:43:52.089Z,3.38
2022-12-27T23:46:21.797Z,3.28
2022-12-27T23:48:50.921Z,3.53
2022-12-27T23:51:18.546Z,3.13
2022-12-27T23:53:45.928Z,3.25
2022-12-27T23:56:19.682Z,3.40
2022-12-27T23:58:47.547Z,3.45
